Time;durP1;ratioP1;P1;durP2;ratioP2;P2;SDS_P1;SDS_P2;PMS_P1;PMS_P2;Temp;Humidity;BMP_temperature;BMP_pressure;BME280_temperature;BME280_humidity;BME280_pressure;Samples;Min_cycle;Max_cycle;Signal;HPM_P1;HPM_P2
2021/07/24 00:02:19;;;;;;;5.70;5.20;;;21.80;57.60;;;;;;5076813;28;20571;-71
2021/07/24 00:04:46;;;;;;;6.90;5.43;;;21.80;57.80;;;;;;5076660;28;20452;-71
2021/07/24 00:07:13;;;;;;;9.70;4.87;;;21.70;57.70;;;;;;5076547;28;20441;-71
2021/07/24 00:09:39;;;;;;;6.87;5.50;;;21.70;57.90;;;;;;5076502;28;20471;-71
2021/07/24 00:12:07;;;;;;;5.07;4.17;;;21.70;58.10;;;;;;5076318;28;20477;-71
2021/07/24 00:14:35;;;;;;;6.20;5.70;;;21.60;58.20;;;;;;5076385;28;20440;-71
2021/07/24 00:17:02;;;;;;;5.40;4.90;;;21.60;58.40;;;;;;5076340;28;20502;-71
2021/07/24 00:19:28;;;;;;;5.80;5.20;;;21.60;58.60;;;;;;5076102;28;20946;-71
2021/07/24 00:21:55;;;;;;;6.70;5.03;;;21.50;58.70;;;;;;5075957;28;20475;-71
2021/07/24 00:24:22;;;;;;;7.63;5.80;;;21.60;59.00;;;;;;5076226;28;20456;-71
2021/07/24 00:26:48;;;;;;;6.87;5.90;;;21.60;59.20;;;;;;5076165;28;20435;-71
2021/07/24 00:29:15;;;;;;;6.57;5.93;;;21.60;59.50;;;;;;5075838;28;20965;-71
2021/07/24 00:31:43;;;;;;;6.50;5.80;;;21.60;59.50;;;;;;5075978;28;20480;-71
2021/07/24 00:34:10;;;;;;;7.57;5.43;;;21.50;59.50;;;;;;5076205;28;20448;-71
2021/07/24 00:36:37;;;;;;;5.10;4.57;;;21.50;59.50;;;;;;5075094;28;20460;-71
2021/07/24 00:39:07;;;;;;;8.60;5.30;;;21.50;59.40;;;;;;5075460;28;20440;-71
2021/07/24 00:41:42;;;;;;;10.27;5.10;;;21.40;59.10;;;;;;5075452;28;20463;-71
2021/07/24 00:44:09;;;;;;;6.40;5.00;;;21.40;59.20;;;;;;5075516;28;20429;-71
2021/07/24 00:46:37;;;;;;;5.33;4.83;;;21.30;59.20;;;;;;5075742;28;20441;-71
2021/07/24 00:49:07;;;;;;;8.27;5.20;;;21.30;59.20;;;;;;5075637;28;20452;-70
2021/07/24 00:51:34;;;;;;;6.00;5.40;;;21.20;59.30;;;;;;5075528;28;20491;-70
2021/07/24 00:54:02;;;;;;;5.70;5.20;;;21.20;59.40;;;;;;5075618;28;20444;-70
2021/07/24 00:56:30;;;;;;;5.03;4.57;;;21.10;59.40;;;;;;5075222;28;20455;-70
2021/07/24 00:58:57;;;;;;;4.93;4.43;;;21.10;59.60;;;;;;5075483;28;20437;-70
2021/07/24 01:01:25;;;;;;;5.33;4.83;;;21.00;59.70;;;;;;5075578;28;20464;-70
2021/07/24 01:03:51;;;;;;;6.50;5.60;;;21.00;59.70;;;;;;5075420;28;20444;-70
2021/07/24 01:06:20;;;;;;;6.50;4.90;;;21.00;59.80;;;;;;5075383;28;20429;-70
2021/07/24 01:08:48;;;;;;;7.50;5.50;;;21.00;60.00;;;;;;5075403;28;20444;-70
2021/07/24 01:11:15;;;;;;;6.20;4.70;;;20.90;60.10;;;;;;5075129;28;20461;-71
2021/07/24 01:13:41;;;;;;;6.47;5.10;;;20.90;60.50;;;;;;5075194;28;20440;-71
2021/07/24 01:16:09;;;;;;;7.00;5.73;;;20.90;60.60;;;;;;5075171;28;20444;-71
2021/07/24 01:18:36;;;;;;;6.83;5.60;;;20.90;60.80;;;;;;5075211;28;20445;-71
2021/07/24 01:21:07;;;;;;;8.30;5.10;;;20.80;60.90;;;;;;5075046;28;20464;-71
2021/07/24 01:23:35;;;;;;;8.40;5.40;;;20.80;61.40;;;;;;5075069;28;20435;-70
2021/07/24 01:26:02;;;;;;;6.40;5.30;;;20.70;61.40;;;;;;5074970;28;20493;-70
2021/07/24 01:28:30;;;;;;;6.37;5.77;;;20.70;61.50;;;;;;5074879;28;20440;-71
2021/07/24 01:30:58;;;;;;;7.53;5.87;;;20.70;61.50;;;;;;5074776;28;20472;-72
2021/07/24 01:33:24;;;;;;;6.90;4.63;;;20.60;61.50;;;;;;5074706;28;20476;-72
2021/07/24 01:35:52;;;;;;;7.33;5.20;;;20.60;61.60;;;;;;5074450;28;20955;-71
2021/07/24 01:38:20;;;;;;;5.83;5.20;;;20.60;61.60;;;;;;5074372;28;20449;-71
2021/07/24 01:40:48;;;;;;;7.50;5.67;;;20.60;61.90;;;;;;5074596;28;20468;-73
2021/07/24 01:43:15;;;;;;;6.07;5.47;;;20.60;62.10;;;;;;5074561;28;20440;-72
2021/07/24 01:45:42;;;;;;;5.73;5.13;;;20.50;62.10;;;;;;5074573;28;20449;-72
2021/07/24 01:48:13;;;;;;;8.50;4.97;;;20.50;62.30;;;;;;5073657;28;20941;-72
2021/07/24 01:53:28;;;;;;;9.77;6.33;;;20.40;62.60;;;;;;5074377;28;20522;-72
2021/07/24 01:56:00;;;;;;;7.40;5.10;;;20.40;62.60;;;;;;5074290;28;20486;-72
2021/07/24 01:58:32;;;;;;;9.17;5.17;;;20.30;62.50;;;;;;5074320;28;20432;-72
2021/07/24 02:01:00;;;;;;;9.10;5.60;;;20.30;62.60;;;;;;5074215;28;20465;-73
2021/07/24 02:03:36;;;;;;;7.50;5.33;;;20.20;62.60;;;;;;5074307;28;20421;-72
2021/07/24 02:06:04;;;;;;;6.20;5.47;;;20.30;62.90;;;;;;5074189;28;20507;-72
2021/07/24 02:08:32;;;;;;;6.60;5.37;;;20.20;62.80;;;;;;5074151;28;20629;-72
2021/07/24 02:11:01;;;;;;;9.40;5.27;;;20.20;63.00;;;;;;5074013;28;20552;-72
2021/07/24 02:13:28;;;;;;;7.30;4.93;;;20.10;62.90;;;;;;5073943;28;20476;-72
2021/07/24 02:15:56;;;;;;;6.13;5.17;;;20.10;63.10;;;;;;5074022;28;20448;-72
2021/07/24 02:18:24;;;;;;;6.27;5.20;;;20.10;63.30;;;;;;5073929;28;20480;-72
2021/07/24 02:20:52;;;;;;;7.83;4.70;;;20.10;63.60;;;;;;5073913;28;20472;-73
2021/07/24 02:23:19;;;;;;;10.10;5.80;;;20.10;63.60;;;;;;5073468;28;20460;-72
2021/07/24 02:25:47;;;;;;;5.00;4.60;;;20.00;63.60;;;;;;5073837;28;20558;-72
2021/07/24 02:28:15;;;;;;;5.97;5.37;;;20.00;63.70;;;;;;5073809;28;20444;-72
2021/07/24 02:30:42;;;;;;;5.73;4.97;;;20.00;63.90;;;;;;5073662;28;20451;-72
2021/07/24 02:33:09;;;;;;;5.03;4.63;;;20.00;64.10;;;;;;5073439;28;20990;-72
2021/07/24 02:35:36;;;;;;;7.80;5.43;;;19.90;63.90;;;;;;5073778;28;20510;-71
2021/07/24 02:38:03;;;;;;;6.03;4.90;;;19.90;63.80;;;;;;5073370;28;20447;-72
2021/07/24 02:40:30;;;;;;;7.10;5.70;;;19.90;63.80;;;;;;5073604;28;20448;-73
2021/07/24 02:42:57;;;;;;;7.67;6.07;;;19.90;64.00;;;;;;5073679;28;20813;-72
2021/07/24 02:45:26;;;;;;;9.13;5.70;;;19.80;64.10;;;;;;5073587;28;20459;-72
2021/07/24 02:47:52;;;;;;;5.43;4.90;;;19.80;64.30;;;;;;5073229;28;20927;-72
2021/07/24 02:50:19;;;;;;;6.13;5.40;;;19.80;64.50;;;;;;5073612;28;20845;-72
2021/07/24 02:52:46;;;;;;;5.77;5.27;;;19.80;64.70;;;;;;5073360;28;20480;-72
2021/07/24 02:55:13;;;;;;;7.40;4.73;;;19.80;64.80;;;;;;5073456;28;20449;-72
2021/07/24 02:57:40;;;;;;;7.07;6.37;;;19.80;65.00;;;;;;5073148;28;20445;-72
2021/07/24 03:00:08;;;;;;;7.37;6.63;;;19.80;65.20;;;;;;5072347;28;20930;-72
2021/07/24 03:02:36;;;;;;;6.00;5.40;;;19.80;65.40;;;;;;5073071;28;20461;-72
2021/07/24 03:05:03;;;;;;;5.67;4.97;;;19.80;65.50;;;;;;5073366;28;20437;-72
2021/07/24 03:07:29;;;;;;;6.00;4.77;;;19.70;65.00;;;;;;5073385;28;20808;-72
2021/07/24 03:09:56;;;;;;;7.83;5.00;;;19.70;64.70;;;;;;5073346;28;20451;-72
2021/07/24 03:12:23;;;;;;;5.07;4.53;;;19.70;64.70;;;;;;5073734;28;20510;-72
2021/07/24 03:14:49;;;;;;;7.03;5.27;;;19.70;64.60;;;;;;5073305;28;20441;-72
2021/07/24 03:17:16;;;;;;;7.10;5.00;;;19.60;64.80;;;;;;5073279;28;20441;-72
2021/07/24 03:19:44;;;;;;;5.70;4.80;;;19.60;65.30;;;;;;5072930;28;20440;-72
2021/07/24 03:22:11;;;;;;;5.30;4.90;;;19.60;65.50;;;;;;5072908;28;20475;-72
2021/07/24 03:24:37;;;;;;;6.00;5.50;;;19.60;65.70;;;;;;5073226;28;20440;-72
2021/07/24 03:27:05;;;;;;;6.30;5.57;;;19.60;66.00;;;;;;5072891;28;20819;-72
2021/07/24 03:29:31;;;;;;;8.43;7.03;;;19.50;66.30;;;;;;5072814;28;20954;-72
2021/07/24 03:31:58;;;;;;;8.17;7.37;;;19.60;66.80;;;;;;5073045;28;20460;-72
2021/07/24 03:34:25;;;;;;;6.40;5.80;;;19.60;67.10;;;;;;5073141;28;20441;-72
2021/07/24 03:36:53;;;;;;;8.43;7.57;;;19.60;67.50;;;;;;5072768;28;20831;-72
2021/07/24 03:39:20;;;;;;;8.37;6.50;;;19.50;67.60;;;;;;5073042;28;20444;-72
2021/07/24 03:41:47;;;;;;;6.00;5.17;;;19.50;67.60;;;;;;5072743;28;20966;-72
2021/07/24 03:44:13;;;;;;;6.17;5.57;;;19.50;67.60;;;;;;5073047;28;20444;-72
2021/07/24 03:46:41;;;;;;;7.03;6.00;;;19.50;67.40;;;;;;5072720;28;20931;-72
2021/07/24 03:49:08;;;;;;;8.13;5.53;;;19.50;67.50;;;;;;5072990;28;20467;-72
2021/07/24 03:51:34;;;;;;;7.20;6.10;;;19.50;67.50;;;;;;5072898;28;20522;-72
2021/07/24 03:54:02;;;;;;;8.40;5.23;;;19.50;67.80;;;;;;5072972;28;20467;-72
2021/07/24 03:56:29;;;;;;;6.40;5.30;;;19.50;68.30;;;;;;5072650;28;20449;-72
2021/07/24 03:58:57;;;;;;;6.17;4.73;;;19.50;68.40;;;;;;5072890;28;20451;-72
2021/07/24 04:01:26;;;;;;;9.27;6.73;;;19.50;68.60;;;;;;5072767;28;20492;-72
2021/07/24 04:03:53;;;;;;;8.60;6.20;;;19.50;68.70;;;;;;5072731;28;20881;-72
2021/07/24 04:06:22;;;;;;;8.47;7.57;;;19.50;69.50;;;;;;5072830;28;20498;-72
2021/07/24 04:08:49;;;;;;;11.00;10.10;;;19.50;70.30;;;;;;5072784;28;20479;-72
2021/07/24 04:11:19;;;;;;;10.70;9.60;;;19.60;71.30;;;;;;5073134;28;20464;-72
2021/07/24 04:13:47;;;;;;;16.20;12.87;;;19.60;71.80;;;;;;5075976;28;21012;-72
2021/07/24 04:16:14;;;;;;;16.70;15.10;;;19.60;72.00;;;;;;5076388;28;20472;-72
2021/07/24 04:18:40;;;;;;;18.03;16.43;;;19.70;72.50;;;;;;5076558;28;20440;-72
2021/07/24 04:21:07;;;;;;;17.03;14.10;;;19.70;73.00;;;;;;5076218;28;20467;-72
2021/07/24 04:23:34;;;;;;;11.30;10.30;;;19.70;73.20;;;;;;5076987;28;20424;-72
2021/07/24 04:26:01;;;;;;;17.57;11.20;;;19.60;73.30;;;;;;5075794;28;20441;-72
2021/07/24 04:28:29;;;;;;;14.33;11.60;;;19.50;73.40;;;;;;5076051;28;20451;-72
2021/07/24 04:30:56;;;;;;;13.80;12.30;;;19.50;73.70;;;;;;5075818;28;20974;-72
2021/07/24 04:33:23;;;;;;;18.03;13.80;;;19.40;73.80;;;;;;5075868;28;20503;-72
2021/07/24 04:35:50;;;;;;;14.07;12.50;;;19.40;74.50;;;;;;5075912;28;20452;-72
2021/07/24 04:38:17;;;;;;;11.73;10.67;;;19.30;74.90;;;;;;5077798;28;20464;-76
2021/07/24 04:40:45;;;;;;;12.90;11.50;;;19.40;75.30;;;;;;5076067;28;20429;-75
2021/07/24 04:43:13;;;;;;;14.67;12.30;;;19.50;75.50;;;;;;5076314;28;20471;-75
2021/07/24 04:45:43;;;;;;;12.63;11.43;;;19.60;75.20;;;;;;5076182;28;20441;-75
2021/07/24 04:48:10;;;;;;;11.73;10.50;;;19.60;75.50;;;;;;5082716;28;20436;-72
2021/07/24 04:50:40;;;;;;;16.50;12.40;;;19.60;75.40;;;;;;5075464;28;20933;-73
2021/07/24 04:53:06;;;;;;;13.60;12.20;;;19.70;75.40;;;;;;5075576;28;20481;-72
2021/07/24 04:55:36;;;;;;;12.90;11.73;;;19.70;75.40;;;;;;5075583;28;20452;-72
2021/07/24 04:58:05;;;;;;;13.53;12.10;;;19.80;75.20;;;;;;5075556;28;20444;-72
2021/07/24 05:00:32;;;;;;;13.43;12.03;;;19.90;75.30;;;;;;5075415;28;20448;-73
2021/07/24 05:03:00;;;;;;;12.23;10.97;;;19.90;75.00;;;;;;5075455;28;20436;-72
2021/07/24 05:05:27;;;;;;;14.43;13.13;;;20.00;74.90;;;;;;5075406;28;20449;-72
2021/07/24 05:07:53;;;;;;;13.40;12.07;;;20.00;74.60;;;;;;5075044;28;20965;-72
2021/07/24 05:10:20;;;;;;;14.50;11.60;;;20.10;75.10;;;;;;5075333;28;20449;-72
2021/07/24 05:12:47;;;;;;;14.27;12.63;;;20.10;75.40;;;;;;5075122;28;20484;-72
2021/07/24 05:15:13;;;;;;;14.10;11.00;;;20.20;75.60;;;;;;5075180;28;20444;-72
2021/07/24 05:17:41;;;;;;;12.70;11.60;;;20.20;75.30;;;;;;5075019;28;20452;-72
2021/07/24 05:20:10;;;;;;;13.63;10.83;;;20.30;75.70;;;;;;5075145;28;20476;-72
2021/07/24 05:22:36;;;;;;;13.77;11.27;;;20.40;75.70;;;;;;5074292;28;20907;-72
2021/07/24 05:25:04;;;;;;;13.60;11.60;;;20.40;75.50;;;;;;5074599;28;20478;-72
2021/07/24 05:27:30;;;;;;;13.67;12.50;;;20.50;75.70;;;;;;5074680;28;20519;-72
2021/07/24 05:29:57;;;;;;;13.83;11.93;;;20.50;75.70;;;;;;5074602;28;20942;-72
2021/07/24 05:32:24;;;;;;;13.87;12.63;;;20.60;76.10;;;;;;5074751;28;20469;-72
2021/07/24 05:34:50;;;;;;;17.87;13.50;;;20.70;75.90;;;;;;5074856;28;20440;-72
2021/07/24 05:37:19;;;;;;;14.27;12.40;;;20.80;76.20;;;;;;5074747;28;20492;-72
2021/07/24 05:39:46;;;;;;;16.23;13.10;;;20.90;75.80;;;;;;5074740;28;20531;-72
2021/07/24 05:42:13;;;;;;;16.13;14.60;;;20.90;75.00;;;;;;5074610;28;20464;-72
2021/07/24 05:44:39;;;;;;;16.97;15.27;;;21.00;74.30;;;;;;5074607;28;20441;-71
2021/07/24 05:47:06;;;;;;;16.90;15.30;;;21.10;74.50;;;;;;5074269;28;20934;-72
2021/07/24 05:49:35;;;;;;;16.63;14.90;;;21.10;74.50;;;;;;5074502;28;20502;-71
2021/07/24 05:52:02;;;;;;;17.83;15.73;;;21.20;74.50;;;;;;5074404;28;20507;-71
2021/07/24 05:54:30;;;;;;;16.33;14.00;;;21.20;74.50;;;;;;5074327;28;20483;-71
2021/07/24 05:56:56;;;;;;;18.43;16.53;;;21.30;74.30;;;;;;5074073;28;20934;-72
2021/07/24 05:59:23;;;;;;;16.33;14.23;;;21.30;74.30;;;;;;5075146;28;20456;-72
2021/07/24 06:01:50;;;;;;;16.60;14.90;;;21.40;74.40;;;;;;5073911;28;20479;-72
2021/07/24 06:04:16;;;;;;;17.03;15.10;;;21.40;74.30;;;;;;5074497;28;20928;-71
2021/07/24 06:06:43;;;;;;;13.10;12.00;;;21.50;74.60;;;;;;5074193;28;20464;-72
2021/07/24 06:09:10;;;;;;;13.10;11.80;;;21.70;74.40;;;;;;5074147;28;20445;-72
2021/07/24 06:11:38;;;;;;;11.77;10.63;;;21.70;73.80;;;;;;5074027;28;20495;-72
2021/07/24 06:14:04;;;;;;;12.83;11.67;;;21.90;73.80;;;;;;5073969;28;20472;-71
2021/07/24 06:16:31;;;;;;;21.17;12.57;;;22.00;73.50;;;;;;5074058;28;20448;-72
2021/07/24 06:19:00;;;;;;;14.03;12.63;;;22.10;73.40;;;;;;5073988;28;20448;-71
2021/07/24 06:21:27;;;;;;;14.00;12.60;;;22.20;73.00;;;;;;5073688;28;20472;-70
2021/07/24 06:23:54;;;;;;;10.60;9.70;;;22.20;72.50;;;;;;5073938;28;20444;-70
2021/07/24 06:26:21;;;;;;;12.97;11.67;;;22.30;72.80;;;;;;5073891;28;20444;-70
2021/07/24 06:28:49;;;;;;;11.67;10.43;;;22.40;72.50;;;;;;5073847;28;20441;-71
2021/07/24 06:31:16;;;;;;;12.60;11.30;;;22.50;72.80;;;;;;5073710;28;20469;-70
2021/07/24 06:33:42;;;;;;;11.93;10.90;;;22.50;72.40;;;;;;5073380;28;20571;-71
2021/07/24 06:36:09;;;;;;;12.73;11.53;;;22.60;72.00;;;;;;5073392;28;20502;-72
2021/07/24 06:38:36;;;;;;;14.10;12.70;;;22.70;71.50;;;;;;5073708;28;20445;-71
2021/07/24 06:41:06;;;;;;;12.87;10.80;;;22.70;71.40;;;;;;5073630;28;20487;-72
2021/07/24 06:43:32;;;;;;;12.87;11.50;;;22.80;71.40;;;;;;5073381;28;20977;-72
2021/07/24 06:46:09;;;;;;;13.30;12.00;;;22.80;71.10;;;;;;5073652;28;20441;-70
2021/07/24 06:48:35;;;;;;;13.27;11.87;;;22.90;71.40;;;;;;5073622;28;20452;-71
2021/07/24 06:51:02;;;;;;;13.93;10.47;;;23.00;71.50;;;;;;5073521;28;20471;-71
2021/07/24 06:53:29;;;;;;;11.60;10.50;;;23.10;71.30;;;;;;5073482;28;20522;-70
2021/07/24 06:55:56;;;;;;;12.33;11.20;;;23.20;71.40;;;;;;5073190;28;20830;-71
2021/07/24 06:58:23;;;;;;;11.30;10.10;;;23.30;71.10;;;;;;5073468;28;20480;-71
2021/07/24 07:00:50;;;;;;;12.17;9.17;;;23.40;70.30;;;;;;5073411;28;20444;-71
2021/07/24 07:03:18;;;;;;;10.03;9.13;;;23.50;69.60;;;;;;5073181;28;20814;-70
2021/07/24 07:05:44;;;;;;;10.70;9.60;;;23.60;68.80;;;;;;5073440;28;20445;-71
2021/07/24 07:08:11;;;;;;;10.70;9.80;;;23.80;68.20;;;;;;5073117;28;20451;-72
2021/07/24 07:10:38;;;;;;;9.70;8.70;;;23.90;66.90;;;;;;5073308;28;20453;-71
2021/07/24 07:13:04;;;;;;;9.60;8.70;;;24.00;66.20;;;;;;5073255;28;20441;-72
2021/07/24 07:15:31;;;;;;;9.57;8.67;;;24.10;65.30;;;;;;5073323;28;20444;-72
2021/07/24 07:17:58;;;;;;;11.53;10.43;;;24.30;64.90;;;;;;5073337;28;20494;-72
2021/07/24 07:20:26;;;;;;;9.80;8.77;;;24.30;64.00;;;;;;5073271;28;20437;-72
2021/07/24 07:22:53;;;;;;;8.90;8.20;;;24.50;64.10;;;;;;5072857;28;20839;-72
2021/07/24 07:25:19;;;;;;;10.77;9.27;;;24.60;63.50;;;;;;5073230;28;20463;-72
2021/07/24 07:27:46;;;;;;;9.33;8.50;;;24.70;62.00;;;;;;5073243;28;20445;-72
2021/07/24 07:30:14;;;;;;;10.17;9.27;;;24.80;61.90;;;;;;5073236;28;20448;-72
2021/07/24 07:32:40;;;;;;;9.00;8.20;;;24.90;61.60;;;;;;5072771;28;20465;-72
2021/07/24 07:35:08;;;;;;;10.10;9.13;;;25.00;60.90;;;;;;5072776;28;20480;-72
2021/07/24 07:37:46;;;;;;;10.70;9.53;;;25.10;60.20;;;;;;5073089;28;20444;-72
2021/07/24 07:40:14;;;;;;;10.40;9.50;;;25.30;59.50;;;;;;5073115;28;20439;-72
2021/07/24 07:42:40;;;;;;;9.97;8.97;;;25.40;59.30;;;;;;5073010;28;20464;-72
2021/07/24 07:45:08;;;;;;;9.40;8.60;;;25.40;58.70;;;;;;5073044;28;20441;-72
2021/07/24 07:47:36;;;;;;;9.77;8.77;;;25.50;58.00;;;;;;5075483;28;20444;-72
2021/07/24 07:50:04;;;;;;;10.00;9.13;;;25.70;57.60;;;;;;5076808;28;20497;-72
2021/07/24 07:52:31;;;;;;;9.03;7.83;;;25.80;57.70;;;;;;5076711;28;20475;-72
2021/07/24 07:54:59;;;;;;;10.00;9.00;;;25.90;57.90;;;;;;5076288;28;21085;-72
2021/07/24 07:57:26;;;;;;;9.90;9.00;;;26.10;57.60;;;;;;5076671;28;20444;-71
2021/07/24 07:59:53;;;;;;;10.03;8.77;;;26.30;57.00;;;;;;5076632;28;20447;-71
2021/07/24 08:02:20;;;;;;;9.80;9.00;;;26.40;56.50;;;;;;5076208;28;20850;-71
2021/07/24 08:04:47;;;;;;;10.13;9.33;;;26.50;56.00;;;;;;5076519;28;20453;-71
2021/07/24 08:07:14;;;;;;;10.10;9.17;;;26.70;55.60;;;;;;5076483;28;20531;-71
2021/07/24 08:09:41;;;;;;;8.57;7.93;;;26.80;55.40;;;;;;5076182;28;20444;-72
2021/07/24 08:12:09;;;;;;;10.13;9.23;;;26.90;54.90;;;;;;5076324;28;20472;-71
2021/07/24 08:14:36;;;;;;;9.57;8.80;;;26.90;54.50;;;;;;5076301;28;20473;-71
2021/07/24 08:17:02;;;;;;;10.00;9.10;;;27.10;54.40;;;;;;5076891;28;20447;-72
2021/07/24 08:19:29;;;;;;;9.70;8.90;;;27.10;54.00;;;;;;5075987;28;20953;-72
2021/07/24 08:21:56;;;;;;;9.33;8.43;;;27.10;53.80;;;;;;5075831;28;20480;-71
2021/07/24 08:24:22;;;;;;;10.23;9.33;;;27.20;53.60;;;;;;5075878;28;20946;-71
2021/07/24 08:26:49;;;;;;;11.07;10.07;;;27.20;53.60;;;;;;5075919;28;20432;-72
2021/07/24 08:29:18;;;;;;;10.63;9.60;;;27.20;53.40;;;;;;5076126;28;20444;-72
2021/07/24 08:31:45;;;;;;;10.60;9.57;;;27.20;53.20;;;;;;5076035;28;20492;-72
2021/07/24 08:34:11;;;;;;;10.40;9.50;;;27.30;53.80;;;;;;5075977;28;20480;-71
2021/07/24 08:36:38;;;;;;;10.83;9.90;;;27.40;54.00;;;;;;5076017;28;20448;-72
2021/07/24 08:39:05;;;;;;;10.57;9.67;;;27.50;53.70;;;;;;5075595;28;20995;-72
2021/07/24 08:41:31;;;;;;;9.77;8.77;;;27.60;53.10;;;;;;5075622;28;20479;-72
2021/07/24 08:43:58;;;;;;;10.43;9.43;;;27.70;52.90;;;;;;5075902;28;20441;-71
2021/07/24 08:46:26;;;;;;;10.17;9.27;;;27.80;52.90;;;;;;5075773;28;20445;-72
2021/07/24 08:48:53;;;;;;;10.47;8.93;;;27.80;52.70;;;;;;5075801;28;20444;-72
2021/07/24 08:51:23;;;;;;;10.90;9.90;;;27.80;52.30;;;;;;5075864;28;20476;-72
2021/07/24 08:53:50;;;;;;;10.40;9.40;;;27.80;52.10;;;;;;5075884;28;20476;-72
2021/07/24 08:56:23;;;;;;;10.60;9.50;;;27.80;52.20;;;;;;5075587;28;20451;-72
2021/07/24 08:58:53;;;;;;;11.37;10.40;;;27.80;52.50;;;;;;5074494;28;20429;-72
2021/07/24 09:01:22;;;;;;;10.87;9.93;;;27.60;52.80;;;;;;5075755;28;20908;-72
2021/07/24 09:03:50;;;;;;;10.63;9.73;;;27.50;52.90;;;;;;5075459;28;20440;-72
2021/07/24 09:06:21;;;;;;;10.90;9.87;;;27.40;53.10;;;;;;5075106;28;20823;-72
2021/07/24 09:08:50;;;;;;;10.00;9.00;;;27.20;53.70;;;;;;5075346;28;20468;-72
2021/07/24 09:11:17;;;;;;;12.53;10.73;;;27.10;54.20;;;;;;5074958;28;20460;-72
2021/07/24 09:13:44;;;;;;;11.63;10.53;;;27.00;54.60;;;;;;5074927;28;20953;-72
2021/07/24 09:16:11;;;;;;;11.73;10.70;;;26.80;55.40;;;;;;5075238;28;20448;-71
2021/07/24 09:18:38;;;;;;;13.20;11.80;;;26.70;55.70;;;;;;5075208;28;20441;-71
2021/07/24 09:21:07;;;;;;;13.27;11.93;;;26.50;54.20;;;;;;5074676;28;20970;-72
2021/07/24 09:23:36;;;;;;;11.80;10.83;;;26.40;53.60;;;;;;5075099;28;20453;-72
2021/07/24 09:26:05;;;;;;;11.40;10.40;;;26.20;52.90;;;;;;5075016;28;20449;-72
2021/07/24 09:28:32;;;;;;;12.23;11.13;;;26.10;53.10;;;;;;5074711;28;20445;-71
2021/07/24 09:30:58;;;;;;;15.10;11.10;;;26.00;53.80;;;;;;5074598;28;20986;-72
2021/07/24 09:33:25;;;;;;;11.03;9.70;;;26.00;54.30;;;;;;5074901;28;20445;-72
2021/07/24 09:35:53;;;;;;;12.47;11.27;;;26.00;55.00;;;;;;5074768;28;20550;-72
2021/07/24 09:38:28;;;;;;;11.03;10.10;;;26.00;55.30;;;;;;5074807;28;20448;-72
2021/07/24 09:40:56;;;;;;;11.53;10.50;;;26.10;55.10;;;;;;5074680;28;20483;-72
2021/07/24 09:43:34;;;;;;;12.37;11.27;;;26.20;54.80;;;;;;5074708;28;20467;-71
2021/07/24 09:46:13;;;;;;;15.53;12.80;;;26.20;54.00;;;;;;5074613;28;20436;-71
2021/07/24 09:48:41;;;;;;;12.67;11.50;;;26.20;53.60;;;;;;5074879;28;20436;-71
2021/07/24 09:51:07;;;;;;;11.50;10.30;;;26.00;53.30;;;;;;5074466;28;20496;-72
2021/07/24 09:53:37;;;;;;;11.90;10.63;;;26.00;53.60;;;;;;5074498;28;20448;-71
2021/07/24 09:56:04;;;;;;;11.93;10.83;;;25.90;53.80;;;;;;5074005;28;20827;-71
2021/07/24 09:58:31;;;;;;;12.27;11.07;;;25.90;54.20;;;;;;5074376;28;20448;-71
2021/07/24 10:01:03;;;;;;;12.97;11.60;;;25.90;54.90;;;;;;5074257;28;20472;-71
2021/07/24 10:03:30;;;;;;;11.70;10.63;;;26.00;55.40;;;;;;5074390;28;20433;-71
2021/07/24 10:05:57;;;;;;;13.00;11.70;;;26.00;55.50;;;;;;5074244;28;20441;-71
2021/07/24 10:08:26;;;;;;;14.20;12.90;;;25.90;55.50;;;;;;5074273;28;20818;-71
2021/07/24 10:10:54;;;;;;;19.70;13.20;;;25.90;55.20;;;;;;5073570;28;20502;-71
2021/07/24 10:13:22;;;;;;;13.20;11.97;;;25.80;55.10;;;;;;5073808;28;20996;-71
2021/07/24 10:15:48;;;;;;;14.33;12.67;;;25.70;54.80;;;;;;5073980;28;20476;-70
2021/07/24 10:18:16;;;;;;;14.70;13.30;;;25.50;55.40;;;;;;5074038;28;20441;-72
2021/07/24 10:20:45;;;;;;;13.23;12.00;;;25.40;55.70;;;;;;5073948;28;20444;-72
2021/07/24 10:23:12;;;;;;;13.83;12.43;;;25.30;56.10;;;;;;5073621;28;20461;-72
2021/07/24 10:25:49;;;;;;;15.70;13.47;;;25.20;56.40;;;;;;5073948;28;20803;-72
2021/07/24 10:28:27;;;;;;;14.00;12.60;;;25.20;56.70;;;;;;5073928;28;20424;-72
2021/07/24 10:30:56;;;;;;;14.10;12.70;;;25.20;57.10;;;;;;5073830;28;20482;-73
2021/07/24 10:33:24;;;;;;;16.47;13.47;;;25.10;57.10;;;;;;5074250;28;20452;-72
2021/07/24 10:35:51;;;;;;;15.63;14.10;;;25.10;57.10;;;;;;5073735;28;20492;-72
2021/07/24 10:38:31;;;;;;;13.73;12.30;;;24.90;57.20;;;;;;5073735;28;20477;-72
2021/07/24 10:41:31;;;;;;;13.43;12.23;;;24.90;58.30;;;;;;5073702;28;20467;-72
2021/07/24 10:44:00;;;;;;;15.20;12.87;;;24.90;58.70;;;;;;5073743;28;20429;-72
2021/07/24 10:47:13;;;;;;;12.17;11.03;;;24.90;58.20;;;;;;5073620;28;20440;-72
2021/07/24 10:50:03;;;;;;;14.40;12.90;;;24.70;57.70;;;;;;5073395;28;20924;-72
2021/07/24 10:53:09;;;;;;;15.43;13.23;;;24.70;58.10;;;;;;5073597;28;20465;-72
2021/07/24 10:55:47;;;;;;;13.50;12.20;;;24.60;58.70;;;;;;5073530;28;20500;-72
2021/07/24 10:58:22;;;;;;;14.17;12.87;;;24.60;58.80;;;;;;5073511;28;20449;-72
2021/07/24 11:00:53;;;;;;;13.53;12.33;;;24.60;59.10;;;;;;5073095;28;20922;-72
2021/07/24 11:03:34;;;;;;;14.17;12.80;;;24.50;58.80;;;;;;5073544;28;20429;-72
2021/07/24 11:06:01;;;;;;;13.97;12.53;;;24.50;58.90;;;;;;5073495;28;20542;-72
2021/07/24 11:09:04;;;;;;;13.27;12.07;;;24.50;58.90;;;;;;5073445;28;20447;-72
2021/07/24 11:11:37;;;;;;;14.67;12.63;;;24.50;59.10;;;;;;5069654;28;20510;-72
2021/07/24 11:14:04;;;;;;;12.80;11.60;;;24.60;59.60;;;;;;5073389;28;20873;-72
2021/07/24 11:17:04;;;;;;;17.77;13.03;;;24.60;59.80;;;;;;5073344;28;20436;-72
2021/07/24 11:19:33;;;;;;;14.07;12.77;;;24.70;59.50;;;;;;5073419;28;20429;-72
2021/07/24 11:22:08;;;;;;;16.63;12.73;;;24.70;59.80;;;;;;5074604;28;20491;-72
2021/07/24 11:24:34;;;;;;;14.40;12.53;;;24.80;59.20;;;;;;5077056;28;20799;-72
2021/07/24 11:27:01;;;;;;;15.13;12.80;;;24.80;59.10;;;;;;5077095;28;20429;-72
2021/07/24 11:29:28;;;;;;;16.73;12.83;;;24.80;59.20;;;;;;5077270;28;20461;-72
2021/07/24 11:31:55;;;;;;;14.53;12.47;;;24.80;59.20;;;;;;5077192;28;20463;-72
2021/07/24 11:34:23;;;;;;;15.03;13.60;;;24.90;59.40;;;;;;5077116;28;20517;-72
2021/07/24 11:36:51;;;;;;;17.07;14.60;;;24.90;59.50;;;;;;5077154;28;20444;-72
2021/07/24 11:39:23;;;;;;;16.23;13.27;;;25.00;59.80;;;;;;5076769;28;20440;-72
2021/07/24 11:41:50;;;;;;;13.83;12.40;;;25.10;60.40;;;;;;5077016;28;20460;-72
2021/07/24 11:44:24;;;;;;;13.57;12.00;;;25.20;60.20;;;;;;5076981;28;20449;-72
2021/07/24 11:47:01;;;;;;;14.50;13.00;;;25.20;59.60;;;;;;5076683;28;20470;-72
2021/07/24 11:49:28;;;;;;;14.63;11.73;;;25.40;59.30;;;;;;5076861;28;20810;-72
2021/07/24 11:51:57;;;;;;;14.47;12.93;;;25.50;58.60;;;;;;5076791;28;20465;-72
2021/07/24 11:54:31;;;;;;;15.70;12.20;;;25.50;58.40;;;;;;5076663;28;20441;-72
2021/07/24 11:56:58;;;;;;;14.63;12.83;;;25.60;58.20;;;;;;5076751;28;20835;-72
2021/07/24 11:59:27;;;;;;;13.07;11.70;;;25.60;59.00;;;;;;5076715;28;20440;-72
2021/07/24 12:01:54;;;;;;;12.53;11.43;;;25.70;58.20;;;;;;5076592;28;20471;-72
2021/07/24 12:04:20;;;;;;;14.43;12.90;;;25.70;58.10;;;;;;5076269;28;20961;-72
2021/07/24 12:06:57;;;;;;;14.73;13.20;;;25.80;59.00;;;;;;5076561;28;20435;-72
2021/07/24 12:09:25;;;;;;;17.53;13.53;;;25.80;59.90;;;;;;5076558;28;20424;-72
2021/07/24 12:11:54;;;;;;;14.87;13.23;;;25.80;59.30;;;;;;5076404;28;20471;-72
2021/07/24 12:14:22;;;;;;;19.47;14.47;;;25.70;59.70;;;;;;5076101;28;20926;-72
2021/07/24 12:17:02;;;;;;;14.37;12.87;;;25.70;60.30;;;;;;5075994;28;21016;-72
2021/07/24 12:19:35;;;;;;;14.67;13.10;;;25.60;59.90;;;;;;5076390;28;20425;-72
2021/07/24 12:22:14;;;;;;;14.80;13.30;;;25.30;59.20;;;;;;5076035;28;20503;-72
2021/07/24 12:24:41;;;;;;;16.03;13.17;;;25.20;60.00;;;;;;5076291;28;20460;-72
2021/07/24 12:27:10;;;;;;;13.87;12.67;;;25.00;61.00;;;;;;5076212;28;20441;-72
2021/07/24 12:29:51;;;;;;;15.17;13.57;;;24.90;61.30;;;;;;5076144;28;20445;-72
2021/07/24 12:32:18;;;;;;;15.60;13.63;;;24.70;62.20;;;;;;5075846;28;20469;-72
2021/07/24 12:34:46;;;;;;;15.03;13.57;;;24.60;63.20;;;;;;5075716;28;20820;-72
2021/07/24 12:37:27;;;;;;;14.37;13.07;;;24.60;64.30;;;;;;5075724;28;21064;-72
2021/07/24 12:39:54;;;;;;;14.87;13.57;;;24.50;64.90;;;;;;5075761;28;20831;-72
2021/07/24 12:42:31;;;;;;;17.13;14.23;;;24.40;64.70;;;;;;5075849;28;20465;-72
2021/07/24 12:44:58;;;;;;;15.60;14.20;;;24.40;65.90;;;;;;5075921;28;20494;-71
2021/07/24 12:47:26;;;;;;;15.83;14.20;;;24.30;66.30;;;;;;5075546;28;20444;-72